Latest Weather Observations for Ulladulla

IDN60801

Issued at 12:33 pm EST Monday 21 August 2017 (issued every 30 minutes, with the page automatically refreshed every 10 minutes)

About weather observations | Map of weather stations | Latest weather observations for NSW | Other Formats
Station Details ID: 069138 Name: ULLADULLA AWS Lat: -35.36 Lon: 150.48 Height: 35.7 m
Data from the previous 72 hours. | See also: Recent months at Ulladulla
Date/Time
EST
Temp
°C
App
Temp
°C
Dew
Point
°C
Rel
Hum
%
Delta-T
°C
Wind Press
QNH
hPa
Press
MSL
hPa
Rain since
9am
mm
Dir  Spd
km/h
Gust
km/h
Spd
kts
Gust
kts
21/12:30pm 14.2 12.0 6.3 59 3.8 N 7 11 4 6 1016.5 1016.5 0.0
21/12:00pm 13.7 11.7 6.3 61 3.5 NNE 6 9 3 5 1016.9 1016.9 0.0
21/11:30am 13.4 11.7 5.8 60 3.6 N 4 6 2 3 1017.4 1017.4 0.0
21/11:00am 13.2 11.5 6.1 62 3.4 N 4 6 2 3 1017.8 1017.8 0.0
21/10:30am 13.6 10.6 6.2 61 3.5 N 11 20 6 11 1018.1 1018.1 0.0
21/10:00am 13.3 9.9 5.9 61 3.5 N 13 19 7 10 1017.9 1017.9 0.0
21/09:30am 12.9 10.0 4.8 58 3.7 N 9 17 5 9 1018.2 1018.2 0.0
21/09:00am 12.5 10.3 5.4 62 3.3 N 6 13 3 7 1018.3 1018.3 0.0
21/08:30am 11.3 8.4 4.7 64 3.0 NNW 9 15 5 8 1018.6 1018.6 0.0
21/08:00am 11.2 8.4 5.3 67 2.7 N 9 13 5 7 1018.7 1018.7 0.0
21/07:30am 11.1 8.1 5.8 70 2.5 N 11 15 6 8 1018.5 1018.5 0.0
21/07:00am 11.1 7.6 5.6 69 2.5 N 13 17 7 9 1018.3 1018.3 0.0
21/06:30am 11.2 7.0 5.5 68 2.6 N 17 22 9 12 1018.3 1018.3 0.0
21/06:00am 11.1 6.8 5.2 67 2.7 N 17 24 9 13 1018.3 1018.3 0.0
21/05:30am 11.3 7.5 5.6 68 2.6 N 15 22 8 12 1018.3 1018.3 0.0
21/05:00am 11.3 7.5 5.6 68 2.6 N 15 20 8 11 1018.3 1018.3 0.0
21/04:30am 10.1 7.7 5.1 71 2.3 N 7 13 4 7 1018.5 1018.5 0.0
21/04:00am 9.2 7.3 4.8 74 2.0 N 4 6 2 3 1018.8 1018.8 0.0
21/03:30am 9.8 7.4 5.2 73 2.1 NNW 7 9 4 5 1019.1 1019.1 0.0
21/03:00am 10.0 7.6 5.4 73 2.1 NW 7 11 4 6 1019.5 1019.5 0.0
21/02:30am 10.0 7.8 5.2 72 2.2 NW 6 7 3 4 1019.4 1019.4 0.0
21/02:00am 9.8 7.6 5.2 73 2.1 NW 6 9 3 5 1019.7 1019.7 0.0
21/01:30am 9.8 7.6 5.2 73 2.1 NW 6 6 3 3 1019.7 1019.7 0.0
21/01:00am 9.8 7.6 5.2 73 2.1 NW 6 7 3 4 1020.0 1020.0 0.0
21/12:30am 9.5 7.6 5.1 74 2.0 NNW 4 6 2 3 1020.3 1020.3 0.0
21/12:00am 10.1 7.9 5.5 73 2.1 NW 6 9 3 5 1020.7 1020.7 0.0
 
Date/Time
EST
Temp
°C
App
Temp
°C
Dew
Point
°C
Rel
Hum
%
Delta-T
°C
Wind Press
QNH
hPa
Press
MSL
hPa
Rain since
9am
mm
Dir  Spd
km/h
Gust
km/h
Spd
kts
Gust
kts
20/11:30pm 9.8 7.6 5.2 73 2.1 NW 6 7 3 4 1020.5 1020.5 0.0
20/11:00pm 9.7 7.8 4.9 72 2.1 NW 4 6 2 3 1020.6 1020.6 0.0
20/10:30pm 9.9 8.0 5.1 72 2.2 NW 4 6 2 3 1021.2 1021.2 0.0
20/10:00pm 9.9 7.4 4.9 71 2.2 NW 7 9 4 5 1021.5 1021.5 0.0
20/09:30pm 9.8 7.3 4.8 71 2.2 NW 7 9 4 5 1021.4 1021.4 0.0
20/09:00pm 9.1 7.0 4.1 71 2.2 WNW 4 6 2 3 1021.6 1021.6 0.0
20/08:30pm 9.8 7.8 4.4 69 2.4 NW 4 6 2 3 1021.6 1021.6 0.0
20/08:00pm 11.0 8.7 4.9 66 2.8 NW 6 7 3 4 1021.7 1021.7 0.0
20/07:30pm 10.8 8.6 5.1 68 2.6 NW 6 9 3 5 1021.9 1021.9 0.0
20/07:00pm 11.6 10.2 5.7 67 2.7 E 2 6 1 3 1021.8 1021.8 0.0
20/06:30pm 11.7 10.4 6.0 68 2.7 ESE 2 6 1 3 1021.5 1021.5 0.0
20/06:00pm 11.4 9.9 5.1 65 2.9 ESE 2 7 1 4 1021.5 1021.5 0.0
20/05:30pm 11.7 9.4 4.9 63 3.1 SSE 6 11 3 6 1021.5 1021.5 0.0
20/05:00pm 12.2 9.3 4.9 61 3.3 SE 9 15 5 8 1021.4 1021.4 0.0
20/04:30pm 12.6 8.6 5.1 60 3.5 SSE 15 24 8 13 1021.6 1021.6 0.0
20/04:00pm 13.0 8.7 5.2 59 3.6 SSE 17 22 9 12 1021.9 1021.9 0.0
20/03:30pm 13.2 9.2 5.1 58 3.8 SSE 15 22 8 12 1021.8 1021.8 0.0
20/03:00pm 13.6 9.6 4.7 55 4.1 S 15 22 8 12 1021.9 1021.9 0.0
20/02:30pm 13.7 9.0 5.3 57 3.9 S 19 26 10 14 1022.2 1022.2 0.0
20/02:00pm 13.3 8.3 3.7 52 4.3 S 19 24 10 13 1022.5 1022.5 0.0
20/01:30pm 13.4 8.0 4.3 54 4.2 S 22 28 12 15 1022.7 1022.7 0.0
20/01:00pm 13.3 7.8 4.2 54 4.1 S 22 30 12 16 1022.9 1022.9 0.0
20/12:30pm 13.4 7.6 4.3 54 4.2 S 24 32 13 17 1023.2 1023.2 0.0
20/12:00pm 13.3 8.1 3.7 52 4.3 SSW 20 33 11 18 1023.5 1023.5 0.0
20/11:30am 13.4 7.6 4.3 54 4.2 S 24 33 13 18 1023.8 1023.9 0.0
20/11:00am 12.9 7.5 2.5 49 4.5 S 20 33 11 18 1024.1 1024.2 0.0
20/10:30am 12.9 8.0 2.2 48 4.7 SSW 17 24 9 13 1024.4 1024.5 0.0
20/10:00am 12.6 7.7 2.2 49 4.5 SSW 17 32 9 17 1024.6 1024.7 0.0
20/09:30am 11.8 6.2 1.4 49 4.4 SSW 20 32 11 17 1024.7 1024.8 0.0
20/09:00am 11.4 5.8 -0.1 45 4.7 SSW 19 30 10 16 1024.9 1025.0 0.0
20/08:30am 10.8 5.5 -0.6 45 4.6 SW 17 30 9 16 1024.9 1025.0 0.0
20/08:00am 10.0 4.6 -1.4 45 4.4 SW 17 26 9 14 1024.6 1024.7 0.0
20/07:30am 9.0 3.9 -1.7 47 4.1 SW 15 24 8 13 1024.4 1024.5 0.0
20/07:00am 8.2 3.1 -2.1 48 3.8 SW 15 26 8 14 1024.0 1024.1 0.0
20/06:30am 8.0 2.8 -2.6 47 3.9 SW 15 22 8 12 1023.6 1023.6 0.0
20/06:00am 7.7 2.5 -2.9 47 3.9 SW 15 26 8 14 1023.3 1023.3 0.0
20/05:30am 7.4 2.5 -3.2 47 3.8 WSW 13 24 7 13 1023.1 1023.1 0.0
20/05:00am 7.5 2.7 -2.8 48 3.7 SW 13 22 7 12 1023.1 1023.1 0.0
20/04:30am 7.3 2.1 -3.0 48 3.7 SW 15 26 8 14 1022.8 1022.8 0.0
20/04:00am 6.8 2.3 -2.9 50 3.5 WSW 11 19 6 10 1022.9 1022.9 0.0
20/03:30am 7.8 2.2 -3.1 46 4.0 SW 17 26 9 14 1022.8 1022.8 0.0
20/03:00am 7.6 2.0 -3.3 46 3.9 SW 17 30 9 16 1022.7 1022.7 0.0
20/02:30am 7.9 1.9 -3.0 46 4.0 SW 19 28 10 15 1022.4 1022.4 0.0
20/02:00am 7.8 2.1 -3.4 45 4.0 SW 17 28 9 15 1022.6 1022.6 0.0
20/01:30am 7.6 2.4 -3.0 47 3.9 SW 15 20 8 11 1022.7 1022.7 0.0
20/01:00am 7.5 2.3 -3.1 47 3.8 SW 15 22 8 12 1022.7 1022.7 0.0
20/12:30am 7.8 3.0 -2.8 47 3.9 SW 13 22 7 12 1022.8 1022.8 0.0
20/12:00am 7.7 2.5 -2.9 47 3.9 SW 15 26 8 14 1022.7 1022.7 0.0
 
Date/Time
EST
Temp
°C
App
Temp
°C
Dew
Point
°C
Rel
Hum
%
Delta-T
°C
Wind Press
QNH
hPa
Press
MSL
hPa
Rain since
9am
mm
Dir  Spd
km/h
Gust
km/h
Spd
kts
Gust
kts
19/11:30pm 8.1 3.3 -2.8 46 4.0 SW 13 28 7 15 1022.9 1022.9 0.0
19/11:00pm 8.0 3.2 -2.6 47 3.9 SW 13 20 7 11 1023.0 1023.0 0.0
19/10:30pm 8.6 2.7 -2.6 45 4.2 SW 19 28 10 15 1023.2 1023.2 0.0
19/10:00pm 8.7 2.8 -2.6 45 4.2 SW 19 30 10 16 1023.2 1023.2 0.0
19/09:30pm 9.1 3.5 -2.5 44 4.4 SW 17 28 9 15 1023.1 1023.1 0.0
19/09:00pm 10.0 4.3 -0.5 48 4.2 SSW 19 28 10 15 1022.9 1022.9 0.0
19/08:30pm 10.0 3.5 -2.3 42 4.7 SW 22 41 12 22 1022.7 1022.7 0.0
19/08:00pm 10.3 4.3 -1.7 43 4.6 SW 20 32 11 17 1022.3 1022.3 0.0
19/07:30pm 10.7 4.7 -1.7 42 4.8 SW 20 28 11 15 1021.9 1021.9 0.0
19/07:00pm 12.3 5.2 1.6 48 4.5 SSW 28 39 15 21 1021.5 1021.5 0.0
19/06:41pm 12.5 3.2 2.7 51 4.3 S 41 61 22 33 1021.1 1021.1 0.0
19/06:30pm 12.4 2.4 4.1 57 3.8 S 46 56 25 30 1020.9 1020.9 0.0
19/06:00pm 12.6 3.7 3.0 52 4.2 S 39 57 21 31 1020.4 1020.4 0.0
19/05:30pm 12.4 2.2 3.4 54 4.0 S 46 57 25 31 1020.2 1020.2 0.0
19/05:00pm 12.5 2.7 5.4 62 3.3 S 46 57 25 31 1019.9 1019.9 0.0
19/04:30pm 12.6 3.3 5.1 60 3.5 S 43 57 23 31 1019.5 1019.5 0.0
19/04:00pm 12.8 4.0 5.5 61 3.4 S 41 54 22 29 1019.2 1019.2 0.0
19/03:30pm 12.8 3.2 4.5 57 3.8 S 44 59 24 32 1018.9 1018.9 0.0
19/03:00pm 13.1 4.6 5.3 59 3.6 S 39 50 21 27 1018.7 1018.7 0.0
19/02:30pm 12.9 3.3 3.6 53 4.2 S 43 54 23 29 1018.4 1018.4 0.0
19/02:00pm 13.5 4.3 3.3 50 4.6 S 41 54 22 29 1018.2 1018.2 0.0
19/01:30pm 13.5 3.9 1.2 43 5.3 S 41 57 22 31 1018.1 1018.1 0.0
19/01:16pm 13.4 5.4 1.4 44 5.2 S 33 52 18 28 1018.0 1018.0 0.0
19/01:00pm 13.4 4.3 2.0 46 4.9 S 39 50 21 27 1018.0 1018.0 0.0
19/12:36pm 13.7 6.0 2.3 46 5.0 SSW 32 54 17 29 1018.1 1018.1 0.0
19/12:30pm 13.5 5.4 1.2 43 5.3 SSW 33 52 18 28 1018.1 1018.1 0.0
19/12:00pm 12.9 3.9 0.3 42 5.2 S 37 57 20 31 1018.2 1018.2 0.0
19/11:30am 12.8 4.3 1.2 45 4.9 SSW 35 59 19 32 1018.1 1018.1 0.0
19/11:00am 12.8 4.8 1.8 47 4.7 SSW 33 56 18 30 1018.3 1018.3 0.0
19/10:30am 12.6 5.2 1.9 48 4.6 SSW 30 48 16 26 1018.4 1018.4 0.0
19/10:00am 11.7 3.6 -0.4 43 4.9 SSW 32 56 17 30 1017.9 1017.9 0.0
19/09:30am 11.5 4.2 0.3 46 4.6 SSW 28 46 15 25 1017.9 1017.9 0.0
19/09:00am 10.8 3.2 -1.9 41 4.9 SSW 28 48 15 26 1017.7 1017.7 0.0
19/08:56am 10.8 3.2 -1.9 41 4.9 SSW 28 48 15 26 1017.7 1017.7 0.0
19/08:30am 10.5 5.0 -2.2 41 4.9 SW 17 26 9 14 1017.4 1017.4 0.0
19/08:00am 9.7 4.5 -2.6 42 4.6 SW 15 26 8 14 1017.0 1017.0 0.0
19/07:30am 8.7 3.4 -3.2 43 4.4 SW 15 24 8 13 1016.5 1016.5 0.0
19/07:00am 8.0 2.4 -3.2 45 4.1 SW 17 24 9 13 1016.2 1016.2 0.0
19/06:30am 7.6 3.1 -3.3 46 3.9 SW 11 20 6 11 1015.8 1015.8 0.0
19/06:00am 7.8 3.0 -2.8 47 3.9 SW 13 20 7 11 1015.3 1015.3 0.0
19/05:30am 7.4 3.3 -2.9 48 3.8 WSW 9 15 5 8 1014.6 1014.6 0.0
19/05:00am 7.7 2.9 -2.9 47 3.9 SW 13 20 7 11 1014.2 1014.2 0.0
19/04:30am 8.0 3.5 -2.9 46 4.0 SW 11 17 6 9 1013.9 1013.9 0.0
19/04:00am 8.3 3.1 -2.9 45 4.1 SW 15 20 8 11 1013.6 1013.6 0.0
19/03:30am 8.5 3.7 -2.4 46 4.1 SW 13 20 7 11 1013.2 1013.2 0.0
19/03:00am 8.8 3.3 -1.9 47 4.1 SW 17 24 9 13 1013.2 1013.2 0.0
19/02:30am 8.3 3.7 -1.0 52 3.6 SW 13 20 7 11 1013.0 1013.0 0.0
19/02:00am 7.5 3.8 -0.2 58 3.0 WSW 9 15 5 8 1012.8 1012.8 0.0
19/01:30am 8.2 4.8 -0.3 55 3.3 W 7 15 4 8 1012.3 1012.3 0.0
19/01:00am 8.6 5.3 0.1 55 3.4 WNW 7 13 4 7 1011.9 1011.9 0.0
19/12:30am 8.9 4.9 0.4 55 3.4 W 11 20 6 11 1011.9 1011.9 0.0
19/12:00am 8.9 5.3 0.4 55 3.4 W 9 17 5 9 1012.1 1012.1 0.0
 
Date/Time
EST
Temp
°C
App
Temp
°C
Dew
Point
°C
Rel
Hum
%
Delta-T
°C
Wind Press
QNH
hPa
Press
MSL
hPa
Rain since
9am
mm
Dir  Spd
km/h
Gust
km/h
Spd
kts
Gust
kts
18/11:30pm 9.0 5.7 0.2 54 3.5 W 7 15 4 8 1012.0 1012.0 0.0
18/11:00pm 9.1 5.5 0.3 54 3.5 W 9 15 5 8 1011.9 1011.9 0.0
18/10:30pm 9.4 6.1 0.1 52 3.7 W 7 15 4 8 1011.8 1011.8 0.0
18/10:00pm 9.9 5.8 0.0 50 4.0 W 11 22 6 12 1011.6 1011.6 0.0
18/09:30pm 10.6 6.1 -0.2 47 4.4 W 13 20 7 11 1011.2 1011.2 0.0
18/09:00pm 10.7 6.2 -0.1 47 4.4 WSW 13 22 7 12 1011.0 1011.0 0.0
18/08:30pm 10.6 6.5 0.1 48 4.3 W 11 24 6 13 1010.6 1010.6 0.0
18/08:00pm 10.7 6.7 0.7 50 4.1 W 11 20 6 11 1010.1 1010.1 0.0
18/07:30pm 11.0 6.3 0.7 49 4.3 WNW 15 32 8 17 1010.0 1010.0 0.0
18/07:00pm 11.3 7.2 0.1 46 4.6 WNW 11 24 6 13 1009.8 1009.8 0.0
18/06:30pm 11.8 7.3 -0.4 43 5.0 W 13 22 7 12 1009.2 1009.2 0.0
18/06:00pm 12.2 7.3 -0.3 42 5.1 WNW 15 28 8 15 1008.8 1008.8 0.0
18/05:30pm 12.4 7.9 -0.1 42 5.1 WNW 13 22 7 12 1008.0 1008.0 0.0
18/05:00pm 13.6 9.1 -0.4 38 5.8 WNW 13 24 7 13 1007.8 1007.8 0.0
18/04:30pm 14.6 9.2 -1.1 34 6.5 WNW 17 33 9 18 1007.2 1007.2 0.0
18/04:00pm 15.4 10.0 -1.2 32 6.9 WNW 17 35 9 19 1006.7 1006.7 0.0
18/03:30pm 15.9 10.1 -1.2 31 7.1 WNW 19 37 10 20 1006.2 1006.2 0.0
18/03:00pm 16.1 10.7 -1.5 30 7.3 W 17 33 9 18 1005.7 1005.7 0.0
18/02:30pm 16.3 9.6 -1.3 30 7.3 W 24 41 13 22 1005.5 1005.5 0.0
18/02:00pm 16.3 10.3 -1.3 30 7.4 W 20 39 11 21 1005.3 1005.3 0.0
18/01:30pm 16.1 9.7 -1.5 30 7.3 WNW 22 46 12 25 1005.1 1005.1 0.0
18/01:00pm 16.2 10.3 -0.9 31 7.2 W 20 37 11 20 1005.1 1005.1 0.0

Other Formats:

Comma delimited format used in spreadsheet applications
http://www.bom.gov.au/fwo/IDN60801/IDN60801.94938.axf

JavaScript Object Notation format (JSON) in row-major order
http://www.bom.gov.au/fwo/IDN60801/IDN60801.94938.json